sensor_id;sensor_type;location;lat;lon;timestamp;pressure;altitude;pressure_sealevel;temperature;humidity
71145;BME280;58812;47.698;17.726;2023-01-29T00:01:07;101146.00;;;-0.60;91.95
71145;BME280;58812;47.698;17.726;2023-01-29T00:03:33;101141.66;;;-0.61;91.95
71145;BME280;58812;47.698;17.726;2023-01-29T00:05:59;101142.72;;;-0.65;92.65
71145;BME280;58812;47.698;17.726;2023-01-29T00:08:29;101150.53;;;-0.64;92.56
71145;BME280;58812;47.698;17.726;2023-01-29T00:10:59;101146.28;;;-0.68;92.95
71145;BME280;58812;47.698;17.726;2023-01-29T00:13:25;101150.59;;;-0.65;93.25
71145;BME280;58812;47.698;17.726;2023-01-29T00:15:54;101155.87;;;-0.67;93.93
71145;BME280;58812;47.698;17.726;2023-01-29T00:18:21;101158.38;;;-0.62;93.15
71145;BME280;58812;47.698;17.726;2023-01-29T00:20:46;101160.19;;;-0.64;94.05
71145;BME280;58812;47.698;17.726;2023-01-29T00:23:12;101154.88;;;-0.63;93.79
71145;BME280;58812;47.698;17.726;2023-01-29T00:25:37;101149.69;;;-0.64;94.41
71145;BME280;58812;47.698;17.726;2023-01-29T00:28:03;101151.47;;;-0.65;94.65
71145;BME280;58812;47.698;17.726;2023-01-29T00:30:28;101161.91;;;-0.63;94.40
71145;BME280;58812;47.698;17.726;2023-01-29T00:32:53;101154.94;;;-0.64;94.81
71145;BME280;58812;47.698;17.726;2023-01-29T00:35:19;101160.19;;;-0.64;95.08
71145;BME280;58812;47.698;17.726;2023-01-29T00:37:44;101156.66;;;-0.63;94.76
71145;BME280;58812;47.698;17.726;2023-01-29T00:40:10;101154.03;;;-0.63;95.16
71145;BME280;58812;47.698;17.726;2023-01-29T00:42:36;101162.00;;;-0.66;95.54
71145;BME280;58812;47.698;17.726;2023-01-29T00:45:20;101160.94;;;-0.61;95.23
71145;BME280;58812;47.698;17.726;2023-01-29T00:47:46;101161.78;;;-0.60;95.53
71145;BME280;58812;47.698;17.726;2023-01-29T00:50:11;101159.22;;;-0.62;95.50
71145;BME280;58812;47.698;17.726;2023-01-29T00:52:37;101168.72;;;-0.58;95.60
71145;BME280;58812;47.698;17.726;2023-01-29T00:55:05;101173.94;;;-0.56;95.83
71145;BME280;58812;47.698;17.726;2023-01-29T00:57:33;101176.50;;;-0.55;95.68
71145;BME280;58812;47.698;17.726;2023-01-29T01:00:00;101172.16;;;-0.56;96.11
71145;BME280;58812;47.698;17.726;2023-01-29T01:02:26;101167.75;;;-0.55;96.03
71145;BME280;58812;47.698;17.726;2023-01-29T01:05:13;101163.41;;;-0.56;96.16
71145;BME280;58812;47.698;17.726;2023-01-29T01:07:42;101178.19;;;-0.52;96.48
71145;BME280;58812;47.698;17.726;2023-01-29T01:10:12;101179.81;;;-0.49;96.26
71145;BME280;58812;47.698;17.726;2023-01-29T01:12:51;101175.44;;;-0.49;96.59
71145;BME280;58812;47.698;17.726;2023-01-29T01:15:17;101178.06;;;-0.49;96.83
71145;BME280;58812;47.698;17.726;2023-01-29T01:17:43;101184.16;;;-0.48;96.83
71145;BME280;58812;47.698;17.726;2023-01-29T01:20:09;101176.34;;;-0.50;97.25
71145;BME280;58812;47.698;17.726;2023-01-29T01:22:35;101182.41;;;-0.48;97.19
71145;BME280;58812;47.698;17.726;2023-01-29T01:25:00;101178.88;;;-0.47;97.13
71145;BME280;58812;47.698;17.726;2023-01-29T01:27:26;101178.03;;;-0.47;97.83
71145;BME280;58812;47.698;17.726;2023-01-29T01:29:51;101184.12;;;-0.47;98.05
71145;BME280;58812;47.698;17.726;2023-01-29T01:32:17;101190.19;;;-0.45;97.53
71145;BME280;58812;47.698;17.726;2023-01-29T01:34:43;101191.97;;;-0.45;98.31
71145;BME280;58812;47.698;17.726;2023-01-29T01:37:11;101187.56;;;-0.45;98.12
71145;BME280;58812;47.698;17.726;2023-01-29T01:39:36;101179.59;;;-0.43;98.37
71145;BME280;58812;47.698;17.726;2023-01-29T01:42:02;101188.47;;;-0.46;98.88
71145;BME280;58812;47.698;17.726;2023-01-29T01:44:53;101184.94;;;-0.45;99.17
71145;BME280;58812;47.698;17.726;2023-01-29T01:47:41;101176.25;;;-0.47;99.64
71145;BME280;58812;47.698;17.726;2023-01-29T01:50:12;101179.72;;;-0.46;99.41
71145;BME280;58812;47.698;17.726;2023-01-29T01:52:42;101178.88;;;-0.47;99.72
71145;BME280;58812;47.698;17.726;2023-01-29T01:55:11;101182.41;;;-0.48;99.92
71145;BME280;58812;47.698;17.726;2023-01-29T01:57:38;101191.19;;;-0.49;100.00
71145;BME280;58812;47.698;17.726;2023-01-29T02:00:11;101192.91;;;-0.48;100.00
71145;BME280;58812;47.698;17.726;2023-01-29T02:02:40;101185.94;;;-0.49;100.00
71145;BME280;58812;47.698;17.726;2023-01-29T02:05:25;101197.31;;;-0.48;100.00
71145;BME280;58812;47.698;17.726;2023-01-29T02:08:10;101192.13;;;-0.50;100.00
71145;BME280;58812;47.698;17.726;2023-01-29T02:10:56;101200.00;;;-0.50;100.00
71145;BME280;58812;47.698;17.726;2023-01-29T02:13:22;101196.59;;;-0.52;100.00
71145;BME280;58812;47.698;17.726;2023-01-29T02:15:47;101207.09;;;-0.52;100.00
71145;BME280;58812;47.698;17.726;2023-01-29T02:18:15;101198.38;;;-0.52;99.53
71145;BME280;58812;47.698;17.726;2023-01-29T02:20:47;101200.13;;;-0.53;99.68
71145;BME280;58812;47.698;17.726;2023-01-29T02:26:14;101197.53;;;-0.55;98.97
71145;BME280;58812;47.698;17.726;2023-01-29T02:28:52;101201.94;;;-0.55;99.08
71145;BME280;58812;47.698;17.726;2023-01-29T02:31:31;101213.31;;;-0.55;98.52
71145;BME280;58812;47.698;17.726;2023-01-29T02:34:18;101215.16;;;-0.57;98.97
71145;BME280;58812;47.698;17.726;2023-01-29T02:39:50;101206.34;;;-0.56;97.86
71145;BME280;58812;47.698;17.726;2023-01-29T02:42:31;101208.03;;;-0.53;96.77
71145;BME280;58812;47.698;17.726;2023-01-29T02:45:08;101217.72;;;-0.55;96.50
71145;BME280;58812;47.698;17.726;2023-01-29T02:47:50;101220.41;;;-0.57;96.74
71145;BME280;58812;47.698;17.726;2023-01-29T02:50:27;101223.97;;;-0.58;97.08
71145;BME280;58812;47.698;17.726;2023-01-29T02:55:48;101222.41;;;-0.63;97.29
71145;BME280;58812;47.698;17.726;2023-01-29T02:58:47;101217.94;;;-0.61;97.59
71145;BME280;58812;47.698;17.726;2023-01-29T03:01:22;101214.50;;;-0.63;96.83
71145;BME280;58812;47.698;17.726;2023-01-29T03:03:52;101224.09;;;-0.62;96.78
71145;BME280;58812;47.698;17.726;2023-01-29T03:06:31;101225.88;;;-0.63;96.43
71145;BME280;58812;47.698;17.726;2023-01-29T03:09:31;101224.09;;;-0.62;96.45
71145;BME280;58812;47.698;17.726;2023-01-29T03:12:04;101225.94;;;-0.64;96.69
71145;BME280;58812;47.698;17.726;2023-01-29T03:14:45;101225.03;;;-0.63;96.24
71145;BME280;58812;47.698;17.726;2023-01-29T03:17:36;101232.97;;;-0.65;95.90
71145;BME280;58812;47.698;17.726;2023-01-29T03:20:06;101232.91;;;-0.63;95.56
71145;BME280;58812;47.698;17.726;2023-01-29T03:22:34;101237.37;;;-0.65;96.05
71145;BME280;58812;47.698;17.726;2023-01-29T03:25:02;101240.87;;;-0.66;95.92
71145;BME280;58812;47.698;17.726;2023-01-29T03:27:51;101243.50;;;-0.65;95.93
71145;BME280;58812;47.698;17.726;2023-01-29T03:30:40;101242.63;;;-0.65;95.77
71145;BME280;58812;47.698;17.726;2023-01-29T03:33:31;101248.78;;;-0.66;95.85
71145;BME280;58812;47.698;17.726;2023-01-29T03:36:05;101249.69;;;-0.67;95.75
71145;BME280;58812;47.698;17.726;2023-01-29T03:38:33;101249.75;;;-0.69;95.85
71145;BME280;58812;47.698;17.726;2023-01-29T03:41:04;101247.13;;;-0.69;95.38
71145;BME280;58812;47.698;17.726;2023-01-29T03:48:38;101249.81;;;-0.70;95.65
71145;BME280;58812;47.698;17.726;2023-01-29T03:54:17;101257.69;;;-0.70;95.30
71145;BME280;58812;47.698;17.726;2023-01-29T04:01:56;101252.44;;;-0.70;93.24
71145;BME280;58812;47.698;17.726;2023-01-29T04:04:26;101262.09;;;-0.71;92.66
71145;BME280;58812;47.698;17.726;2023-01-29T04:06:54;101261.22;;;-0.71;92.20
71145;BME280;58812;47.698;17.726;2023-01-29T04:09:29;101257.78;;;-0.73;92.12
71145;BME280;58812;47.698;17.726;2023-01-29T04:12:07;101260.41;;;-0.73;92.07
71145;BME280;58812;47.698;17.726;2023-01-29T04:14:33;101256.06;;;-0.74;90.81
71145;BME280;58812;47.698;17.726;2023-01-29T04:17:04;101252.59;;;-0.75;91.36
71145;BME280;58812;47.698;17.726;2023-01-29T04:19:33;101250.87;;;-0.76;89.81
71145;BME280;58812;47.698;17.726;2023-01-29T04:22:04;101257.03;;;-0.77;89.09
71145;BME280;58812;47.698;17.726;2023-01-29T04:24:30;101243.94;;;-0.78;89.54
71145;BME280;58812;47.698;17.726;2023-01-29T04:35:39;101241.41;;;-0.82;88.19
71145;BME280;58812;47.698;17.726;2023-01-29T04:41:16;101242.34;;;-0.84;88.08
71145;BME280;58812;47.698;17.726;2023-01-29T04:46:39;101242.47;;;-0.87;87.55
71145;BME280;58812;47.698;17.726;2023-01-29T04:52:29;101246.00;;;-0.88;87.12
71145;BME280;58812;47.698;17.726;2023-01-29T04:55:11;101234.72;;;-0.92;87.55
71145;BME280;58812;47.698;17.726;2023-01-29T05:00:18;101225.06;;;-0.91;86.84
71145;BME280;58812;47.698;17.726;2023-01-29T05:02:47;101230.37;;;-0.93;86.36
71145;BME280;58812;47.698;17.726;2023-01-29T05:05:15;101232.16;;;-0.93;87.08
71145;BME280;58812;47.698;17.726;2023-01-29T05:07:43;101233.09;;;-0.96;86.98
71145;BME280;58812;47.698;17.726;2023-01-29T05:10:10;101236.56;;;-0.94;86.53
71145;BME280;58812;47.698;17.726;2023-01-29T05:12:37;101232.31;;;-0.98;86.11
71145;BME280;58812;47.698;17.726;2023-01-29T05:15:08;101235.00;;;-0.99;86.04
71145;BME280;58812;47.698;17.726;2023-01-29T05:17:36;101234.94;;;-0.98;85.92
71145;BME280;58812;47.698;17.726;2023-01-29T05:20:02;101239.38;;;-1.00;85.82
71145;BME280;58812;47.698;17.726;2023-01-29T05:22:28;101242.00;;;-1.00;86.43
71145;BME280;58812;47.698;17.726;2023-01-29T05:24:54;101247.28;;;-1.00;86.30
71145;BME280;58812;47.698;17.726;2023-01-29T05:27:23;101248.22;;;-1.02;85.05
71145;BME280;58812;47.698;17.726;2023-01-29T05:30:10;101246.44;;;-1.02;85.34
71145;BME280;58812;47.698;17.726;2023-01-29T05:32:36;101249.06;;;-1.02;85.73
71145;BME280;58812;47.698;17.726;2023-01-29T05:35:01;101249.06;;;-1.02;85.67
71145;BME280;58812;47.698;17.726;2023-01-29T05:37:27;101260.50;;;-1.03;85.44
71145;BME280;58812;47.698;17.726;2023-01-29T05:39:52;101257.88;;;-1.03;84.71
71145;BME280;58812;47.698;17.726;2023-01-29T05:42:18;101268.38;;;-1.03;85.29
71145;BME280;58812;47.698;17.726;2023-01-29T05:44:43;101261.41;;;-1.04;84.96
71145;BME280;58812;47.698;17.726;2023-01-29T05:47:09;101256.16;;;-1.04;84.59
71145;BME280;58812;47.698;17.726;2023-01-29T05:49:34;101265.81;;;-1.04;84.46
71145;BME280;58812;47.698;17.726;2023-01-29T05:52:00;101261.41;;;-1.04;83.11
71145;BME280;58812;47.698;17.726;2023-01-29T05:54:25;101265.03;;;-1.08;83.69
71145;BME280;58812;47.698;17.726;2023-01-29T05:56:50;101265.88;;;-1.08;84.52
71145;BME280;58812;47.698;17.726;2023-01-29T05:59:16;101276.38;;;-1.06;84.27
71145;BME280;58812;47.698;17.726;2023-01-29T06:01:41;101272.97;;;-1.10;83.90
71145;BME280;58812;47.698;17.726;2023-01-29T06:04:07;101268.63;;;-1.11;84.17
71145;BME280;58812;47.698;17.726;2023-01-29T06:06:32;101270.34;;;-1.10;84.79
71145;BME280;58812;47.698;17.726;2023-01-29T06:08:58;101261.69;;;-1.13;84.72
71145;BME280;58812;47.698;17.726;2023-01-29T06:11:23;101266.94;;;-1.13;85.26
71145;BME280;58812;47.698;17.726;2023-01-29T06:13:49;101264.31;;;-1.13;85.35
71145;BME280;58812;47.698;17.726;2023-01-29T06:16:14;101267.03;;;-1.16;85.54
71145;BME280;58812;47.698;17.726;2023-01-29T06:18:40;101274.00;;;-1.15;85.09
71145;BME280;58812;47.698;17.726;2023-01-29T06:21:09;101274.94;;;-1.16;84.60
71145;BME280;58812;47.698;17.726;2023-01-29T06:23:35;101266.25;;;-1.18;84.53
71145;BME280;58812;47.698;17.726;2023-01-29T06:26:02;101276.75;;;-1.18;84.85
71145;BME280;58812;47.698;17.726;2023-01-29T06:28:28;101270.59;;;-1.19;84.70
71145;BME280;58812;47.698;17.726;2023-01-29T06:30:59;101265.41;;;-1.20;84.64
71145;BME280;58812;47.698;17.726;2023-01-29T06:33:25;101274.13;;;-1.18;84.94
71145;BME280;58812;47.698;17.726;2023-01-29T06:35:55;101278.59;;;-1.22;84.14
71145;BME280;58812;47.698;17.726;2023-01-29T06:38:21;101276.84;;;-1.21;84.18
71145;BME280;58812;47.698;17.726;2023-01-29T06:40:47;101273.28;;;-1.20;84.24
71145;BME280;58812;47.698;17.726;2023-01-29T06:43:12;101265.53;;;-1.23;84.19
71145;BME280;58812;47.698;17.726;2023-01-29T06:45:37;101276.03;;;-1.23;84.56
71145;BME280;58812;47.698;17.726;2023-01-29T06:48:03;101274.25;;;-1.23;85.05
71145;BME280;58812;47.698;17.726;2023-01-29T06:50:28;101278.66;;;-1.23;85.13
71145;BME280;58812;47.698;17.726;2023-01-29T06:52:54;101276.09;;;-1.26;85.05
71145;BME280;58812;47.698;17.726;2023-01-29T06:55:19;101276.06;;;-1.25;85.29
71145;BME280;58812;47.698;17.726;2023-01-29T06:57:45;101283.00;;;-1.22;85.75
71145;BME280;58812;47.698;17.726;2023-01-29T07:00:10;101275.19;;;-1.25;86.17
71145;BME280;58812;47.698;17.726;2023-01-29T07:02:36;101282.22;;;-1.26;86.66
71145;BME280;58812;47.698;17.726;2023-01-29T07:05:01;101283.91;;;-1.23;86.55
71145;BME280;58812;47.698;17.726;2023-01-29T07:07:27;101284.72;;;-1.21;86.89
71145;BME280;58812;47.698;17.726;2023-01-29T07:09:52;101285.38;;;-1.15;87.13
71145;BME280;58812;47.698;17.726;2023-01-29T07:12:18;101293.31;;;-1.16;87.39
71145;BME280;58812;47.698;17.726;2023-01-29T07:14:43;101297.78;;;-1.20;86.68
71145;BME280;58812;47.698;17.726;2023-01-29T07:17:08;101293.41;;;-1.19;86.94
71145;BME280;58812;47.698;17.726;2023-01-29T07:19:34;101295.22;;;-1.21;87.04
71145;BME280;58812;47.698;17.726;2023-01-29T07:21:59;101296.00;;;-1.18;87.47
71145;BME280;58812;47.698;17.726;2023-01-29T07:24:28;101310.00;;;-1.17;87.85
71145;BME280;58812;47.698;17.726;2023-01-29T07:26:53;101313.56;;;-1.20;88.07
71145;BME280;58812;47.698;17.726;2023-01-29T07:29:19;101307.63;;;-1.26;86.83
71145;BME280;58812;47.698;17.726;2023-01-29T07:31:44;101303.34;;;-1.29;87.00
71145;BME280;58812;47.698;17.726;2023-01-29T07:34:10;101299.88;;;-1.29;87.55
71145;BME280;58812;47.698;17.726;2023-01-29T07:36:35;101294.59;;;-1.29;87.49
71145;BME280;58812;47.698;17.726;2023-01-29T07:39:01;101296.25;;;-1.27;87.79
71145;BME280;58812;47.698;17.726;2023-01-29T07:41:27;101298.94;;;-1.28;87.22
71145;BME280;58812;47.698;17.726;2023-01-29T07:43:52;101300.78;;;-1.30;86.72
71145;BME280;58812;47.698;17.726;2023-01-29T07:46:17;101297.25;;;-1.31;87.45
71145;BME280;58812;47.698;17.726;2023-01-29T07:48:43;101302.38;;;-1.26;86.42
71145;BME280;58812;47.698;17.726;2023-01-29T07:51:08;101302.31;;;-1.23;85.99
71145;BME280;58812;47.698;17.726;2023-01-29T07:53:34;101296.94;;;-1.20;85.51
71145;BME280;58812;47.698;17.726;2023-01-29T07:56:01;101303.72;;;-1.13;85.77
71145;BME280;58812;47.698;17.726;2023-01-29T07:58:26;101303.69;;;-1.12;85.26
71145;BME280;58812;47.698;17.726;2023-01-29T08:00:52;101306.22;;;-1.09;84.95
71145;BME280;58812;47.698;17.726;2023-01-29T08:03:18;101300.88;;;-1.05;84.57
71145;BME280;58812;47.698;17.726;2023-01-29T08:05:44;101303.50;;;-1.05;83.66
71145;BME280;58812;47.698;17.726;2023-01-29T08:08:10;101298.00;;;-0.98;83.46
71145;BME280;58812;47.698;17.726;2023-01-29T08:10:37;101292.13;;;-1.06;82.64
71145;BME280;58812;47.698;17.726;2023-01-29T08:13:03;101296.38;;;-1.02;83.24
71145;BME280;58812;47.698;17.726;2023-01-29T08:15:30;101285.13;;;-1.07;82.74
71145;BME280;58812;47.698;17.726;2023-01-29T08:17:55;101299.84;;;-1.01;82.67
71145;BME280;58812;47.698;17.726;2023-01-29T08:20:21;101307.66;;;-0.98;82.85
71145;BME280;58812;47.698;17.726;2023-01-29T08:22:47;101302.47;;;-1.01;81.56
71145;BME280;58812;47.698;17.726;2023-01-29T08:25:13;101305.69;;;-0.92;82.49
71145;BME280;58812;47.698;17.726;2023-01-29T08:27:39;101304.69;;;-0.88;81.95
71145;BME280;58812;47.698;17.726;2023-01-29T08:30:06;101296.56;;;-0.80;81.96
71145;BME280;58812;47.698;17.726;2023-01-29T08:32:32;101304.19;;;-0.72;80.49
71145;BME280;58812;47.698;17.726;2023-01-29T08:34:57;101300.75;;;-0.74;80.59
71145;BME280;58812;47.698;17.726;2023-01-29T08:37:23;101313.19;;;-0.79;79.45
71145;BME280;58812;47.698;17.726;2023-01-29T08:39:48;101309.75;;;-0.82;78.43
71145;BME280;58812;47.698;17.726;2023-01-29T08:42:13;101311.37;;;-0.77;78.54
71145;BME280;58812;47.698;17.726;2023-01-29T08:44:39;101313.12;;;-0.78;78.26
71145;BME280;58812;47.698;17.726;2023-01-29T08:47:04;101311.16;;;-0.71;77.84
71145;BME280;58812;47.698;17.726;2023-01-29T08:49:30;101318.16;;;-0.70;77.18
71145;BME280;58812;47.698;17.726;2023-01-29T08:51:55;101320.44;;;-0.60;77.49
71145;BME280;58812;47.698;17.726;2023-01-29T08:54:22;101318.66;;;-0.33;77.48
71145;BME280;58812;47.698;17.726;2023-01-29T08:56:48;101317.38;;;-0.46;76.87
71145;BME280;58812;47.698;17.726;2023-01-29T08:59:14;101322.31;;;-0.37;76.73
71145;BME280;58812;47.698;17.726;2023-01-29T09:01:39;101322.78;;;-0.50;76.69
71145;BME280;58812;47.698;17.726;2023-01-29T09:04:05;101330.69;;;-0.25;77.23
71145;BME280;58812;47.698;17.726;2023-01-29T09:06:30;101337.75;;;-0.26;76.63
71145;BME280;58812;47.698;17.726;2023-01-29T09:08:56;101340.09;;;-0.18;76.74
71145;BME280;58812;47.698;17.726;2023-01-29T09:11:21;101327.16;;;-0.24;76.78
71145;BME280;58812;47.698;17.726;2023-01-29T09:13:46;101332.19;;;-0.43;76.11
71145;BME280;58812;47.698;17.726;2023-01-29T09:16:12;101340.56;;;-0.32;76.77
71145;BME280;58812;47.698;17.726;2023-01-29T09:18:37;101340.31;;;-0.24;76.84
71145;BME280;58812;47.698;17.726;2023-01-29T09:21:03;101334.16;;;-0.23;76.66
71145;BME280;58812;47.698;17.726;2023-01-29T09:23:29;101330.19;;;-0.35;76.16
71145;BME280;58812;47.698;17.726;2023-01-29T09:25:55;101335.88;;;0.28;75.49
71145;BME280;58812;47.698;17.726;2023-01-29T09:28:21;101349.94;;;0.51;74.42
71145;BME280;58812;47.698;17.726;2023-01-29T09:30:47;101345.13;;;0.86;73.96
71145;BME280;58812;47.698;17.726;2023-01-29T09:33:12;101342.75;;;1.25;72.47
71145;BME280;58812;47.698;17.726;2023-01-29T09:35:42;101347.62;;;1.34;72.08
71145;BME280;58812;47.698;17.726;2023-01-29T09:38:08;101348.84;;;1.48;70.49
71145;BME280;58812;47.698;17.726;2023-01-29T09:40:44;101346.38;;;0.99;70.95
71145;BME280;58812;47.698;17.726;2023-01-29T09:46:14;101352.19;;;0.62;72.14
71145;BME280;58812;47.698;17.726;2023-01-29T09:48:42;101342.34;;;0.19;73.98
71145;BME280;58812;47.698;17.726;2023-01-29T09:51:25;101335.72;;;1.02;72.80
71145;BME280;58812;47.698;17.726;2023-01-29T09:56:36;101334.13;;;0.51;nan
71145;BME280;58812;47.698;17.726;2023-01-29T09:59:02;101343.31;;;1.10;71.75
71145;BME280;58812;47.698;17.726;2023-01-29T10:04:24;101336.69;;;1.00;71.66
71145;BME280;58812;47.698;17.726;2023-01-29T10:12:51;101355.69;;;0.86;72.78
71145;BME280;58812;47.698;17.726;2023-01-29T10:20:52;101368.44;;;0.50;74.20
71145;BME280;58812;47.698;17.726;2023-01-29T10:23:28;101348.47;;;0.19;74.04
71145;BME280;58812;47.698;17.726;2023-01-29T10:25:54;101345.78;;;-0.04;73.60
71145;BME280;58812;47.698;17.726;2023-01-29T10:28:48;101354.81;;;0.14;72.52
71145;BME280;58812;47.698;17.726;2023-01-29T10:31:22;101351.16;;;0.90;70.78
71145;BME280;58812;47.698;17.726;2023-01-29T10:34:17;101348.59;;;1.54;67.55
71145;BME280;58812;47.698;17.726;2023-01-29T10:36:47;101345.56;;;1.43;66.93
71145;BME280;58812;47.698;17.726;2023-01-29T10:39:19;101353.41;;;1.44;67.81
71145;BME280;58812;47.698;17.726;2023-01-29T10:42:30;101349.75;;;1.48;68.06
71145;BME280;58812;47.698;17.726;2023-01-29T10:51:01;101332.94;;;0.37;69.39
71145;BME280;58812;47.698;17.726;2023-01-29T10:53:40;101325.84;;;0.62;69.59
71145;BME280;58812;47.698;17.726;2023-01-29T10:56:18;101331.31;;;1.03;67.91
71145;BME280;58812;47.698;17.726;2023-01-29T10:58:51;101319.09;;;0.55;68.38
71145;BME280;58812;47.698;17.726;2023-01-29T11:01:17;101327.25;;;0.71;67.96
71145;BME280;58812;47.698;17.726;2023-01-29T11:03:43;101311.28;;;0.75;68.05
71145;BME280;58812;47.698;17.726;2023-01-29T11:06:16;101309.09;;;0.87;68.49
71145;BME280;58812;47.698;17.726;2023-01-29T11:11:17;101293.47;;;1.68;66.80
71145;BME280;58812;47.698;17.726;2023-01-29T11:16:11;101282.19;;;2.05;64.65
71145;BME280;58812;47.698;17.726;2023-01-29T11:18:57;101277.50;;;1.51;64.05
71145;BME280;58812;47.698;17.726;2023-01-29T11:21:24;101270.19;;;1.98;64.29
71145;BME280;58812;47.698;17.726;2023-01-29T11:24:10;101268.91;;;2.07;64.73
71145;BME280;58812;47.698;17.726;2023-01-29T11:26:38;101265.50;;;1.64;64.82
71145;BME280;58812;47.698;17.726;2023-01-29T11:29:04;101250.41;;;2.65;63.65
71145;BME280;58812;47.698;17.726;2023-01-29T11:31:50;101257.81;;;2.94;61.33
71145;BME280;58812;47.698;17.726;2023-01-29T11:34:19;101263.97;;;3.48;59.36
71145;BME280;58812;47.698;17.726;2023-01-29T11:36:45;101256.66;;;3.54;59.49
71145;BME280;58812;47.698;17.726;2023-01-29T11:39:18;101251.81;;;3.10;59.22
71145;BME280;58812;47.698;17.726;2023-01-29T11:42:03;101261.34;;;3.66;59.00
71145;BME280;58812;47.698;17.726;2023-01-29T11:44:33;101254.81;;;2.08;61.51
71145;BME280;58812;47.698;17.726;2023-01-29T11:47:28;101242.88;;;1.79;62.86
71145;BME280;58812;47.698;17.726;2023-01-29T11:49:57;101245.34;;;1.41;64.42
71145;BME280;58812;47.698;17.726;2023-01-29T11:52:26;101240.44;;;0.90;65.80
71145;BME280;58812;47.698;17.726;2023-01-29T11:55:00;101229.25;;;1.05;66.59
71145;BME280;58812;47.698;17.726;2023-01-29T11:57:40;101233.03;;;0.77;67.74
71145;BME280;58812;47.698;17.726;2023-01-29T12:02:43;101231.72;;;1.10;67.71
71145;BME280;58812;47.698;17.726;2023-01-29T12:05:15;101216.50;;;0.94;68.66
71145;BME280;58812;47.698;17.726;2023-01-29T12:07:43;101227.63;;;0.80;68.02
71145;BME280;58812;47.698;17.726;2023-01-29T12:10:36;101209.53;;;0.71;68.31
71145;BME280;58812;47.698;17.726;2023-01-29T12:13:26;101205.50;;;1.47;66.65
71145;BME280;58812;47.698;17.726;2023-01-29T12:16:28;101192.13;;;1.52;66.47
71145;BME280;58812;47.698;17.726;2023-01-29T12:18:57;101200.50;;;1.62;65.64
71145;BME280;58812;47.698;17.726;2023-01-29T12:21:54;101194.34;;;2.02;64.57
71145;BME280;58812;47.698;17.726;2023-01-29T12:27:18;101185.81;;;1.95;63.90
71145;BME280;58812;47.698;17.726;2023-01-29T12:32:33;101185.97;;;2.30;61.53
71145;BME280;58812;47.698;17.726;2023-01-29T12:35:08;101174.53;;;1.92;62.39
71145;BME280;58812;47.698;17.726;2023-01-29T12:38:05;101174.91;;;1.64;63.85
71145;BME280;58812;47.698;17.726;2023-01-29T12:40:32;101171.84;;;2.31;62.14
71145;BME280;58812;47.698;17.726;2023-01-29T12:43:06;101155.28;;;2.27;62.92
71145;BME280;58812;47.698;17.726;2023-01-29T12:45:37;101154.56;;;2.05;61.70
71145;BME280;58812;47.698;17.726;2023-01-29T12:48:33;101158.25;;;1.82;63.14
71145;BME280;58812;47.698;17.726;2023-01-29T12:51:07;101153.13;;;1.98;63.64
71145;BME280;58812;47.698;17.726;2023-01-29T12:53:38;101153.97;;;1.79;63.24
71145;BME280;58812;47.698;17.726;2023-01-29T12:56:18;101155.53;;;1.83;64.21
71145;BME280;58812;47.698;17.726;2023-01-29T12:58:49;101140.47;;;1.67;64.20
71145;BME280;58812;47.698;17.726;2023-01-29T13:01:33;101142.19;;;1.68;64.79
71145;BME280;58812;47.698;17.726;2023-01-29T13:04:02;101135.00;;;1.51;65.80
71145;BME280;58812;47.698;17.726;2023-01-29T13:06:36;101137.41;;;1.37;66.41
71145;BME280;58812;47.698;17.726;2023-01-29T13:09:08;101135.13;;;0.87;67.56
71145;BME280;58812;47.698;17.726;2023-01-29T13:11:40;101129.16;;;0.82;68.07
71145;BME280;58812;47.698;17.726;2023-01-29T13:14:24;101130.00;;;1.24;67.41
71145;BME280;58812;47.698;17.726;2023-01-29T13:16:56;101128.41;;;1.61;66.67
71145;BME280;58812;47.698;17.726;2023-01-29T13:19:28;101121.13;;;1.66;65.81
71145;BME280;58812;47.698;17.726;2023-01-29T13:21:58;101117.38;;;1.51;65.55
71145;BME280;58812;47.698;17.726;2023-01-29T13:24:30;101123.16;;;1.20;66.15
71145;BME280;58812;47.698;17.726;2023-01-29T13:26:59;101118.19;;;0.92;67.22
71145;BME280;58812;47.698;17.726;2023-01-29T13:29:27;101117.34;;;0.92;67.89
71145;BME280;58812;47.698;17.726;2023-01-29T13:31:55;101119.03;;;0.93;67.53
71145;BME280;58812;47.698;17.726;2023-01-29T13:34:33;101101.37;;;0.95;66.74
71145;BME280;58812;47.698;17.726;2023-01-29T13:37:02;101096.72;;;1.01;66.82
71145;BME280;58812;47.698;17.726;2023-01-29T13:39:38;101111.06;;;1.35;66.17
71145;BME280;58812;47.698;17.726;2023-01-29T13:42:19;101101.16;;;1.60;64.16
71145;BME280;58812;47.698;17.726;2023-01-29T13:44:48;101102.00;;;1.61;63.53
71145;BME280;58812;47.698;17.726;2023-01-29T13:47:28;101099.69;;;1.93;62.91
71145;BME280;58812;47.698;17.726;2023-01-29T13:50:18;101100.69;;;1.90;63.01
71145;BME280;58812;47.698;17.726;2023-01-29T13:52:55;101102.59;;;1.86;63.30
71145;BME280;58812;47.698;17.726;2023-01-29T13:55:36;101109.88;;;2.00;62.27
71145;BME280;58812;47.698;17.726;2023-01-29T13:58:03;101101.75;;;2.05;63.00
71145;BME280;58812;47.698;17.726;2023-01-29T14:05:43;101104.37;;;1.67;65.22
71145;BME280;58812;47.698;17.726;2023-01-29T14:08:40;101100.53;;;1.54;65.42
71145;BME280;58812;47.698;17.726;2023-01-29T14:13:45;101111.44;;;1.07;67.26
71145;BME280;58812;47.698;17.726;2023-01-29T14:18:45;101113.16;;;0.66;68.71
71145;BME280;58812;47.698;17.726;2023-01-29T14:23:46;101117.09;;;0.10;70.75
71145;BME280;58812;47.698;17.726;2023-01-29T14:26:52;101124.44;;;0.02;71.30
71145;BME280;58812;47.698;17.726;2023-01-29T14:29:22;101121.69;;;-0.18;72.32
71145;BME280;58812;47.698;17.726;2023-01-29T14:34:23;101127.66;;;-0.13;72.69
71145;BME280;58812;47.698;17.726;2023-01-29T14:36:52;101127.19;;;-0.24;73.29
71145;BME280;58812;47.698;17.726;2023-01-29T14:39:35;101134.03;;;-0.44;73.59